createdAt,value
2017-12-31T00:00:58.433Z,0
2017-12-31T00:01:58.865Z,0
2017-12-31T00:02:58.481Z,0
2017-12-31T00:03:58.300Z,0
2017-12-31T00:04:58.385Z,0
2017-12-31T00:05:58.879Z,0
2017-12-31T00:06:58.443Z,0
2017-12-31T00:07:58.705Z,0
2017-12-31T00:08:58.940Z,0
2017-12-31T00:09:59.536Z,0
2017-12-31T00:10:59.462Z,0
2017-12-31T00:11:59.631Z,0
2017-12-31T00:12:59.932Z,0
2017-12-31T00:14:00.337Z,0
2017-12-31T00:15:00.115Z,0
2017-12-31T00:16:00.359Z,0
2017-12-31T00:17:00.180Z,0
2017-12-31T00:17:59.927Z,0
2017-12-31T00:19:00.923Z,0
2017-12-31T00:20:01.260Z,0
2017-12-31T00:21:00.531Z,0
2017-12-31T00:22:00.839Z,0
2017-12-31T00:23:00.430Z,0
2017-12-31T00:24:01.028Z,0
2017-12-31T00:25:00.917Z,0
2017-12-31T00:26:01.154Z,0
2017-12-31T00:27:00.877Z,0
2017-12-31T00:28:00.480Z,0
2017-12-31T00:29:01.368Z,0
2017-12-31T00:30:01.890Z,0
2017-12-31T00:31:01.028Z,0
2017-12-31T00:32:01.097Z,0
2017-12-31T00:33:01.271Z,0
2017-12-31T00:34:01.533Z,0
2017-12-31T00:35:01.083Z,0
2017-12-31T00:36:01.574Z,0
2017-12-31T00:37:01.347Z,0
2017-12-31T00:38:01.761Z,0
2017-12-31T00:39:02.187Z,0
2017-12-31T00:40:02.440Z,0
2017-12-31T00:41:02.933Z,0
2017-12-31T00:42:02.704Z,0
2017-12-31T00:43:02.845Z,0
2017-12-31T00:44:03.580Z,0
2017-12-31T00:45:03.495Z,0
2017-12-31T00:46:03.453Z,0
2017-12-31T00:47:03.793Z,0
2017-12-31T00:48:04.350Z,0
2017-12-31T00:49:04.167Z,0
2017-12-31T00:50:04.032Z,0
2017-12-31T00:51:04.440Z,0
2017-12-31T00:52:04.883Z,0
2017-12-31T00:53:05.127Z,0
2017-12-31T00:54:05.183Z,0
2017-12-31T00:55:05.648Z,0
2017-12-31T00:56:05.892Z,0
2017-12-31T00:57:06.321Z,0
2017-12-31T00:58:06.044Z,0
2017-12-31T00:59:06.990Z,0
2017-12-31T01:00:06.878Z,0
2017-12-31T01:01:07.022Z,0
2017-12-31T01:02:07.361Z,0
2017-12-31T01:03:06.952Z,0
2017-12-31T01:04:07.513Z,0
2017-12-31T01:05:07.200Z,0
2017-12-31T01:06:07.658Z,0
2017-12-31T01:07:07.179Z,0
2017-12-31T01:08:07.180Z,0
2017-12-31T01:09:07.478Z,0
2017-12-31T01:10:07.913Z,0
2017-12-31T01:11:07.380Z,0
2017-12-31T01:12:07.918Z,0
2017-12-31T01:13:08.027Z,0
2017-12-31T01:14:07.809Z,0
2017-12-31T01:15:07.789Z,0
2017-12-31T01:16:08.113Z,0
2017-12-31T01:17:08.383Z,0
2017-12-31T01:18:08.848Z,0
2017-12-31T01:19:09.520Z,0
2017-12-31T01:20:09.535Z,0
2017-12-31T01:21:09.635Z,0
2017-12-31T01:22:09.480Z,0
2017-12-31T01:23:09.642Z,0
2017-12-31T01:24:10.182Z,0
2017-12-31T01:25:09.746Z,0
2017-12-31T01:26:10.012Z,0
2017-12-31T01:27:10.277Z,0
2017-12-31T01:28:10.691Z,0
2017-12-31T01:29:10.579Z,0
2017-12-31T01:30:10.953Z,0
2017-12-31T01:31:10.330Z,0
2017-12-31T01:32:10.592Z,0
2017-12-31T01:33:10.887Z,0
2017-12-31T01:34:11.015Z,0
2017-12-31T01:35:11.036Z,0
2017-12-31T01:36:11.075Z,0
2017-12-31T01:37:10.523Z,0
2017-12-31T01:38:10.254Z,0
2017-12-31T01:39:10.757Z,0
2017-12-31T01:40:10.783Z,0
2017-12-31T01:41:11.809Z,0
2017-12-31T01:42:11.469Z,0
2017-12-31T01:43:11.433Z,0
2017-12-31T01:44:12.795Z,0
2017-12-31T01:45:12.843Z,0
2017-12-31T01:46:18.719Z,0
2017-12-31T01:47:19.558Z,0
2017-12-31T01:48:18.630Z,0
2017-12-31T01:49:18.800Z,0
2017-12-31T01:50:18.742Z,0
2017-12-31T01:51:18.891Z,0
2017-12-31T01:52:19.440Z,0
2017-12-31T01:53:19.529Z,0
2017-12-31T01:54:18.804Z,0
2017-12-31T01:55:19.313Z,0
2017-12-31T01:56:19.490Z,0
2017-12-31T01:57:19.867Z,0
2017-12-31T01:58:19.602Z,0
2017-12-31T01:59:19.696Z,0
2017-12-31T02:00:19.596Z,0
2017-12-31T02:01:20.216Z,0
2017-12-31T02:02:20.371Z,0
2017-12-31T02:03:21.129Z,0
2017-12-31T02:04:19.812Z,0
2017-12-31T02:05:20.205Z,0
2017-12-31T02:06:21.852Z,0
2017-12-31T02:07:21.070Z,0
2017-12-31T02:08:20.890Z,0
2017-12-31T02:09:21.003Z,0
2017-12-31T02:10:21.249Z,0
2017-12-31T02:11:21.954Z,0
2017-12-31T02:12:21.503Z,0
2017-12-31T02:13:21.797Z,0
2017-12-31T02:14:22.102Z,0
2017-12-31T02:15:22.551Z,0
2017-12-31T02:16:22.260Z,0
2017-12-31T02:17:21.903Z,0
2017-12-31T02:18:22.240Z,0
2017-12-31T02:19:23.619Z,0
2017-12-31T02:20:23.188Z,0
2017-12-31T02:21:22.704Z,0
2017-12-31T02:22:23.098Z,0
2017-12-31T02:23:23.412Z,0
2017-12-31T02:24:22.861Z,0
2017-12-31T02:25:23.164Z,0
2017-12-31T02:26:23.709Z,0
2017-12-31T02:27:22.801Z,0
2017-12-31T02:28:25.335Z,0
2017-12-31T02:29:24.322Z,0
2017-12-31T02:30:24.124Z,0
2017-12-31T02:31:24.710Z,0
2017-12-31T02:32:25.348Z,0
2017-12-31T02:33:24.665Z,0
2017-12-31T02:34:24.508Z,0
2017-12-31T02:36:13.594Z,0
2017-12-31T02:36:29.818Z,0
2017-12-31T02:37:30.235Z,0
2017-12-31T02:38:30.197Z,0
2017-12-31T02:39:29.973Z,0
2017-12-31T02:40:29.840Z,0
2017-12-31T02:41:30.112Z,0
2017-12-31T02:42:30.524Z,0
2017-12-31T02:43:30.781Z,0
2017-12-31T02:44:30.979Z,0
2017-12-31T02:45:30.705Z,0
2017-12-31T02:46:30.477Z,0
2017-12-31T02:47:30.848Z,0
2017-12-31T02:48:31.270Z,0
2017-12-31T02:49:31.398Z,0
2017-12-31T02:50:31.668Z,0
2017-12-31T02:51:31.530Z,0
2017-12-31T02:52:31.560Z,0
2017-12-31T02:53:32.152Z,0
2017-12-31T02:54:32.544Z,0
2017-12-31T02:55:32.448Z,0
2017-12-31T02:56:32.945Z,0
2017-12-31T02:57:32.946Z,0
2017-12-31T02:58:33.347Z,0
2017-12-31T02:59:32.984Z,0
2017-12-31T03:00:33.743Z,0
2017-12-31T03:01:33.824Z,0
2017-12-31T03:02:33.849Z,0
2017-12-31T03:03:33.543Z,0
2017-12-31T03:04:33.867Z,0
2017-12-31T03:05:33.711Z,0
2017-12-31T03:06:34.069Z,0
2017-12-31T03:07:34.460Z,0
2017-12-31T03:08:35.698Z,0
2017-12-31T03:09:34.867Z,0
2017-12-31T03:10:35.263Z,0
2017-12-31T03:11:35.516Z,0
2017-12-31T03:12:35.664Z,0
2017-12-31T03:13:35.423Z,0
2017-12-31T03:14:35.768Z,0
2017-12-31T03:15:35.834Z,0
2017-12-31T03:16:36.187Z,0
2017-12-31T03:17:36.572Z,0
2017-12-31T03:18:36.520Z,0
2017-12-31T03:19:36.930Z,0
2017-12-31T03:20:37.332Z,0
2017-12-31T03:21:37.354Z,0
2017-12-31T03:22:37.061Z,0
2017-12-31T03:23:37.183Z,0
2017-12-31T03:24:37.278Z,0
2017-12-31T03:25:36.920Z,0
2017-12-31T03:26:37.469Z,0
2017-12-31T03:27:37.748Z,0
2017-12-31T03:28:37.821Z,0
2017-12-31T03:29:37.561Z,0
2017-12-31T03:30:37.719Z,0
2017-12-31T03:31:37.621Z,0
2017-12-31T03:32:38.088Z,0
2017-12-31T03:33:38.453Z,0
2017-12-31T03:34:38.562Z,0
2017-12-31T03:35:38.160Z,0
2017-12-31T03:36:38.965Z,0
2017-12-31T03:37:39.326Z,0
2017-12-31T03:38:39.190Z,0
2017-12-31T03:39:39.880Z,0
2017-12-31T03:40:40.321Z,0
2017-12-31T03:41:40.619Z,0
2017-12-31T03:42:40.054Z,0
2017-12-31T03:43:40.154Z,0
2017-12-31T03:44:39.854Z,0
2017-12-31T03:45:40.228Z,0
2017-12-31T03:46:40.395Z,0
2017-12-31T03:47:40.378Z,0
2017-12-31T03:48:40.460Z,0
2017-12-31T03:49:40.443Z,0
2017-12-31T03:50:41.121Z,0
2017-12-31T03:51:40.216Z,0
2017-12-31T03:52:40.586Z,0
2017-12-31T03:53:40.546Z,0
2017-12-31T03:54:40.669Z,0
2017-12-31T03:55:40.560Z,0
2017-12-31T03:56:40.719Z,0
2017-12-31T03:57:42.217Z,0
2017-12-31T03:58:41.060Z,0
2017-12-31T03:59:41.136Z,0
2017-12-31T04:00:41.521Z,0
2017-12-31T04:01:41.915Z,0
2017-12-31T04:02:41.410Z,0
2017-12-31T04:03:42.286Z,0
2017-12-31T04:04:42.164Z,0
2017-12-31T04:05:42.735Z,0
2017-12-31T04:06:43.220Z,0
2017-12-31T04:07:41.533Z,0
2017-12-31T04:08:41.952Z,0
2017-12-31T04:09:41.907Z,0
2017-12-31T04:10:41.523Z,0
2017-12-31T04:11:42.668Z,0
2017-12-31T04:12:42.816Z,0
2017-12-31T04:13:42.836Z,0
2017-12-31T04:14:42.427Z,0
2017-12-31T04:15:42.595Z,0
2017-12-31T04:16:43.179Z,0
2017-12-31T04:17:43.198Z,0
2017-12-31T04:18:43.028Z,0
2017-12-31T04:19:43.657Z,0
2017-12-31T04:20:43.378Z,0
2017-12-31T04:21:43.236Z,0
2017-12-31T04:22:43.175Z,0
2017-12-31T04:23:43.139Z,0
2017-12-31T04:24:43.550Z,0
2017-12-31T04:25:44.077Z,0
2017-12-31T04:26:43.557Z,0
2017-12-31T04:27:43.584Z,0
2017-12-31T04:28:44.337Z,0
2017-12-31T04:29:44.651Z,0
2017-12-31T04:30:45.071Z,0
2017-12-31T04:31:44.819Z,0
2017-12-31T04:32:44.852Z,0
2017-12-31T04:33:44.945Z,0
2017-12-31T04:34:44.893Z,0
2017-12-31T04:35:45.688Z,0
2017-12-31T04:36:44.930Z,0
2017-12-31T04:37:44.614Z,0
2017-12-31T04:38:44.875Z,0
2017-12-31T04:39:44.878Z,0
2017-12-31T04:40:44.940Z,0
2017-12-31T04:41:45.303Z,0
2017-12-31T04:42:45.095Z,0
2017-12-31T04:43:44.769Z,0
2017-12-31T04:44:45.062Z,0
2017-12-31T04:45:45.353Z,0
2017-12-31T04:46:45.927Z,0
2017-12-31T04:47:45.631Z,0
2017-12-31T04:48:45.218Z,0
2017-12-31T04:49:47.241Z,0
2017-12-31T04:50:45.677Z,0
2017-12-31T04:51:45.713Z,0
2017-12-31T04:52:45.439Z,0
2017-12-31T04:53:45.434Z,0
2017-12-31T04:54:45.558Z,0
2017-12-31T04:55:45.920Z,0
2017-12-31T04:56:45.855Z,0
2017-12-31T04:57:46.249Z,0
2017-12-31T04:58:46.015Z,0
2017-12-31T04:59:46.471Z,0
2017-12-31T05:01:16.259Z,0
2017-12-31T05:02:01.673Z,0
2017-12-31T05:03:01.831Z,0
2017-12-31T05:04:02.942Z,0
2017-12-31T05:05:03.423Z,0
2017-12-31T05:06:02.195Z,0
2017-12-31T05:07:02.310Z,0
2017-12-31T05:08:02.372Z,0
2017-12-31T05:09:02.314Z,0
2017-12-31T05:10:02.889Z,0
2017-12-31T05:11:02.700Z,0
2017-12-31T05:12:03.131Z,0
2017-12-31T05:13:03.584Z,0
2017-12-31T05:14:04.144Z,0
2017-12-31T05:15:03.770Z,0
2017-12-31T05:16:03.505Z,0
2017-12-31T05:17:03.562Z,0
2017-12-31T05:18:03.990Z,0
2017-12-31T05:19:03.912Z,0
2017-12-31T05:20:03.756Z,0
2017-12-31T05:21:04.157Z,0
2017-12-31T05:22:04.513Z,0
2017-12-31T05:23:04.755Z,0
2017-12-31T05:24:04.786Z,0
2017-12-31T05:25:04.626Z,0
2017-12-31T05:26:04.576Z,0
2017-12-31T05:27:05.081Z,0
2017-12-31T05:28:05.574Z,0
2017-12-31T05:29:05.006Z,0
2017-12-31T05:30:05.744Z,0
2017-12-31T05:31:05.073Z,0
2017-12-31T05:32:05.394Z,0
2017-12-31T05:33:05.956Z,0
2017-12-31T05:34:06.438Z,0
2017-12-31T05:35:05.954Z,0
2017-12-31T05:36:06.716Z,0
2017-12-31T05:37:06.829Z,0
2017-12-31T05:38:06.999Z,0
2017-12-31T05:39:07.667Z,0
2017-12-31T05:40:07.418Z,0
2017-12-31T05:41:07.270Z,0
2017-12-31T05:42:07.589Z,0
2017-12-31T05:43:09.176Z,0
2017-12-31T05:44:08.047Z,0
2017-12-31T05:45:07.266Z,0
2017-12-31T05:46:07.212Z,0
2017-12-31T05:47:07.376Z,0
2017-12-31T05:48:07.633Z,0
2017-12-31T05:49:08.021Z,0
2017-12-31T05:50:08.016Z,0
2017-12-31T05:51:08.246Z,0
2017-12-31T05:52:08.685Z,0
2017-12-31T05:53:08.782Z,0
2017-12-31T05:54:09.032Z,0
2017-12-31T05:55:09.486Z,0
2017-12-31T05:56:09.131Z,0
2017-12-31T05:57:09.687Z,0
2017-12-31T05:58:10.657Z,0
2017-12-31T05:59:10.596Z,0
2017-12-31T06:00:10.741Z,0
2017-12-31T06:01:10.299Z,0
2017-12-31T06:02:10.458Z,0
2017-12-31T06:03:09.819Z,0
2017-12-31T06:04:10.521Z,0
2017-12-31T06:05:10.623Z,0
2017-12-31T06:06:11.310Z,0
2017-12-31T06:07:11.242Z,0
2017-12-31T06:08:13.304Z,0
2017-12-31T06:09:13.699Z,0
2017-12-31T06:10:12.331Z,0
2017-12-31T06:11:12.463Z,0
2017-12-31T06:12:12.305Z,0
2017-12-31T06:13:12.056Z,0
2017-12-31T06:14:12.445Z,0
2017-12-31T06:15:12.616Z,0
2017-12-31T06:16:12.484Z,0
2017-12-31T06:17:12.369Z,0
2017-12-31T06:18:12.692Z,0
2017-12-31T06:19:12.971Z,0
2017-12-31T06:20:13.408Z,0
2017-12-31T06:21:13.423Z,0
2017-12-31T06:22:13.940Z,0
2017-12-31T06:23:13.582Z,0
2017-12-31T06:24:13.893Z,0
2017-12-31T06:25:13.947Z,0
2017-12-31T06:26:14.144Z,0
2017-12-31T06:27:14.492Z,0
2017-12-31T06:28:15.509Z,0
2017-12-31T06:29:15.165Z,0
2017-12-31T06:30:14.982Z,0
2017-12-31T06:31:15.350Z,0
2017-12-31T06:32:15.414Z,0
2017-12-31T06:33:15.409Z,0
2017-12-31T06:34:16.638Z,0
2017-12-31T06:35:16.027Z,0
2017-12-31T06:36:15.593Z,0
2017-12-31T06:37:15.886Z,0
2017-12-31T06:38:15.600Z,0
2017-12-31T06:39:15.858Z,0
2017-12-31T06:40:16.023Z,0
2017-12-31T06:41:16.390Z,0
2017-12-31T06:42:16.311Z,0
2017-12-31T06:43:16.591Z,0
2017-12-31T06:44:16.704Z,4
2017-12-31T06:45:16.590Z,0
2017-12-31T06:46:16.497Z,0
2017-12-31T06:47:16.827Z,4
2017-12-31T06:48:17.598Z,4
2017-12-31T06:49:17.066Z,4
2017-12-31T06:50:17.048Z,8
2017-12-31T06:51:17.687Z,4
2017-12-31T06:52:17.764Z,4
2017-12-31T06:53:17.419Z,8
2017-12-31T06:54:17.954Z,8
2017-12-31T06:55:17.961Z,8
2017-12-31T06:56:18.046Z,12
2017-12-31T06:57:18.253Z,12
2017-12-31T06:58:18.067Z,12
2017-12-31T06:59:18.481Z,16
2017-12-31T07:00:23.586Z,16
2017-12-31T07:01:23.457Z,16
2017-12-31T07:02:24.227Z,20
2017-12-31T07:03:23.577Z,20
2017-12-31T07:04:23.825Z,24
2017-12-31T07:05:24.014Z,28
2017-12-31T07:06:23.820Z,28
2017-12-31T07:07:23.658Z,32
2017-12-31T07:08:23.606Z,36
2017-12-31T07:09:24.323Z,36
2017-12-31T07:10:24.667Z,44
2017-12-31T07:11:24.757Z,48
2017-12-31T07:12:24.182Z,48
2017-12-31T07:13:25.035Z,52
2017-12-31T07:14:24.531Z,56
2017-12-31T07:15:24.168Z,56
2017-12-31T07:16:24.301Z,64
2017-12-31T07:17:24.337Z,72
2017-12-31T07:18:24.674Z,76
2017-12-31T07:19:24.847Z,84
2017-12-31T07:20:25.628Z,88
2017-12-31T07:21:26.455Z,96
2017-12-31T07:22:26.198Z,104
2017-12-31T07:23:26.177Z,112
2017-12-31T07:24:25.618Z,120
2017-12-31T07:25:25.600Z,128
2017-12-31T07:26:26.507Z,140
2017-12-31T07:27:26.257Z,152
2017-12-31T07:28:25.728Z,164
2017-12-31T07:29:25.802Z,168
2017-12-31T07:30:25.262Z,176
2017-12-31T07:31:26.286Z,188
2017-12-31T07:32:25.651Z,204
2017-12-31T07:33:25.972Z,220
2017-12-31T07:34:25.948Z,232
2017-12-31T07:35:26.634Z,244
2017-12-31T07:36:25.491Z,256
2017-12-31T07:37:25.949Z,264
2017-12-31T07:38:26.095Z,268
2017-12-31T07:39:26.089Z,276
2017-12-31T07:40:25.879Z,288
2017-12-31T07:41:26.062Z,304
2017-12-31T07:42:26.066Z,316
2017-12-31T07:43:25.856Z,332
2017-12-31T07:44:26.529Z,340
2017-12-31T07:45:26.448Z,356
2017-12-31T07:46:27.612Z,376
2017-12-31T07:47:27.157Z,404
2017-12-31T07:48:27.144Z,432
2017-12-31T07:49:27.327Z,452
2017-12-31T07:50:28.555Z,464
2017-12-31T07:51:27.802Z,468
2017-12-31T07:52:27.595Z,460
2017-12-31T07:53:28.446Z,476
2017-12-31T07:54:28.803Z,452
2017-12-31T07:55:29.512Z,440
2017-12-31T07:56:28.746Z,448
2017-12-31T07:57:29.019Z,456
2017-12-31T07:58:28.743Z,472
2017-12-31T07:59:29.038Z,492
2017-12-31T08:00:29.158Z,532
2017-12-31T08:01:29.435Z,584
2017-12-31T08:02:28.574Z,632
2017-12-31T08:03:28.997Z,652
2017-12-31T08:04:29.333Z,644
2017-12-31T08:05:30.337Z,612
2017-12-31T08:06:30.101Z,580
2017-12-31T08:07:29.966Z,552
2017-12-31T08:08:30.414Z,532
2017-12-31T08:09:30.591Z,520
2017-12-31T08:10:31.045Z,516
2017-12-31T08:11:31.388Z,516
2017-12-31T08:12:31.137Z,520
2017-12-31T08:13:31.740Z,520
2017-12-31T08:14:31.288Z,540
2017-12-31T08:15:31.046Z,580
2017-12-31T08:16:32.314Z,640
2017-12-31T08:17:31.692Z,712
2017-12-31T08:18:31.944Z,768
2017-12-31T08:19:32.331Z,796
2017-12-31T08:20:32.241Z,800
2017-12-31T08:21:32.005Z,840
2017-12-31T08:22:32.897Z,884
2017-12-31T08:23:33.327Z,912
2017-12-31T08:24:33.215Z,928
2017-12-31T08:25:34.243Z,920
2017-12-31T08:26:33.730Z,888
2017-12-31T08:27:34.048Z,848
2017-12-31T08:28:34.741Z,796
2017-12-31T08:29:34.782Z,748
2017-12-31T08:30:34.849Z,740
2017-12-31T08:31:34.317Z,756
2017-12-31T08:32:35.796Z,772
2017-12-31T08:33:36.672Z,752
2017-12-31T08:34:34.800Z,732
2017-12-31T08:35:35.474Z,736
2017-12-31T08:36:35.583Z,764
2017-12-31T08:37:35.965Z,792
2017-12-31T08:38:36.203Z,836
2017-12-31T08:39:36.154Z,884
2017-12-31T08:40:36.032Z,924
2017-12-31T08:41:36.186Z,964
2017-12-31T08:42:36.633Z,1004
2017-12-31T08:43:36.701Z,1060
2017-12-31T08:44:36.746Z,1104
2017-12-31T08:45:36.914Z,1124
2017-12-31T08:46:37.065Z,1152
2017-12-31T08:47:37.280Z,1188
2017-12-31T08:48:37.284Z,1208
2017-12-31T08:49:37.592Z,1196
2017-12-31T08:50:37.543Z,1196
2017-12-31T08:51:37.492Z,1096
2017-12-31T08:52:38.053Z,1016
2017-12-31T08:53:38.468Z,976
2017-12-31T08:54:37.530Z,948
2017-12-31T08:55:38.209Z,1032
2017-12-31T08:56:38.510Z,1164
2017-12-31T08:57:38.690Z,1228
2017-12-31T08:58:37.874Z,1224
2017-12-31T08:59:38.080Z,1180
2017-12-31T09:00:38.555Z,1028
2017-12-31T09:01:38.358Z,880
2017-12-31T09:02:38.811Z,768
2017-12-31T09:03:38.621Z,764
2017-12-31T09:04:38.408Z,868
2017-12-31T09:05:39.334Z,940
2017-12-31T09:06:39.192Z,832
2017-12-31T09:07:39.330Z,816
2017-12-31T09:08:39.074Z,860
2017-12-31T09:09:39.172Z,880
2017-12-31T09:10:39.438Z,1012
2017-12-31T09:11:39.471Z,1088
2017-12-31T09:12:38.971Z,1036
2017-12-31T09:13:39.457Z,1112
2017-12-31T09:14:39.710Z,1112
2017-12-31T09:15:40.368Z,1104
2017-12-31T09:16:39.522Z,1176
2017-12-31T09:17:40.343Z,1184
2017-12-31T09:18:40.158Z,1084
2017-12-31T09:19:40.596Z,1016
2017-12-31T09:20:41.081Z,1008
2017-12-31T09:21:41.446Z,1040
2017-12-31T09:22:41.504Z,1008
2017-12-31T09:23:41.442Z,1032
2017-12-31T09:24:41.550Z,1024
2017-12-31T09:25:42.031Z,832
2017-12-31T09:26:41.776Z,820
2017-12-31T09:27:42.470Z,992
2017-12-31T09:28:42.519Z,1020
2017-12-31T09:29:41.927Z,1024
2017-12-31T09:30:43.771Z,1064
2017-12-31T09:31:42.633Z,1072
2017-12-31T09:32:42.549Z,744
2017-12-31T09:33:43.299Z,808
2017-12-31T09:34:43.727Z,1028
2017-12-31T09:35:43.648Z,1060
2017-12-31T09:36:43.881Z,1020
2017-12-31T09:37:44.930Z,1032
2017-12-31T09:38:43.932Z,1112
2017-12-31T09:39:44.168Z,1068
2017-12-31T09:40:44.289Z,944
2017-12-31T09:41:44.601Z,972
2017-12-31T09:42:44.519Z,1084
2017-12-31T09:43:45.162Z,1152
2017-12-31T09:44:45.469Z,1140
2017-12-31T09:45:45.920Z,1108
2017-12-31T09:46:45.886Z,1080
2017-12-31T09:47:46.095Z,1076
2017-12-31T09:48:46.528Z,1092
2017-12-31T09:49:46.648Z,1044
2017-12-31T09:50:45.898Z,1008
2017-12-31T09:51:46.734Z,1048
2017-12-31T09:52:47.389Z,1072
2017-12-31T09:53:46.850Z,1036
2017-12-31T09:54:46.860Z,992
2017-12-31T09:55:47.251Z,976
2017-12-31T09:56:47.603Z,988
2017-12-31T09:57:47.929Z,904
2017-12-31T09:58:48.196Z,852
2017-12-31T09:59:48.191Z,828
2017-12-31T10:00:47.931Z,776
2017-12-31T10:01:47.705Z,816
2017-12-31T10:02:48.136Z,716
2017-12-31T10:03:48.469Z,688
2017-12-31T10:04:47.807Z,728
2017-12-31T10:05:48.498Z,828
2017-12-31T10:06:47.844Z,972
2017-12-31T10:07:48.335Z,1020
2017-12-31T10:08:48.697Z,912
2017-12-31T10:09:48.209Z,784
2017-12-31T10:10:49.856Z,836
2017-12-31T10:11:48.742Z,788
2017-12-31T10:12:49.099Z,808
2017-12-31T10:13:49.506Z,816
2017-12-31T10:14:49.256Z,888
2017-12-31T10:15:49.656Z,916
2017-12-31T10:16:49.527Z,912
2017-12-31T10:17:50.223Z,836
2017-12-31T10:18:49.912Z,804
2017-12-31T10:19:50.289Z,864
2017-12-31T10:20:50.262Z,1000
2017-12-31T10:21:50.481Z,1156
2017-12-31T10:22:51.204Z,1168
2017-12-31T10:23:51.140Z,1160
2017-12-31T10:24:51.461Z,1188
2017-12-31T10:25:51.860Z,1156
2017-12-31T10:26:51.995Z,1004
2017-12-31T10:27:52.408Z,1076
2017-12-31T10:28:52.147Z,1000
2017-12-31T10:29:52.415Z,1136
2017-12-31T10:30:53.039Z,1292
2017-12-31T10:31:54.147Z,1156
2017-12-31T10:32:52.860Z,1040
2017-12-31T10:33:52.499Z,1080
2017-12-31T10:34:52.753Z,1148
2017-12-31T10:35:53.447Z,1400
2017-12-31T10:36:53.035Z,1224
2017-12-31T10:37:53.518Z,992
2017-12-31T10:38:53.644Z,776
2017-12-31T10:39:54.486Z,836
2017-12-31T10:40:54.175Z,900
2017-12-31T10:41:54.152Z,1088
2017-12-31T10:42:55.556Z,1376
2017-12-31T10:43:54.207Z,1456
2017-12-31T10:44:54.201Z,1520
2017-12-31T10:45:54.947Z,1408
2017-12-31T10:46:54.680Z,1076
2017-12-31T10:47:54.654Z,1616
2017-12-31T10:48:55.195Z,2008
2017-12-31T10:49:55.397Z,1956
2017-12-31T10:50:55.607Z,2488
2017-12-31T10:51:55.749Z,3444
2017-12-31T10:52:55.713Z,4232
2017-12-31T10:53:54.995Z,4228
2017-12-31T10:54:56.116Z,4016
2017-12-31T10:55:55.515Z,3320
2017-12-31T10:56:55.526Z,2856
2017-12-31T10:57:56.196Z,2124
2017-12-31T10:58:56.452Z,1448
2017-12-31T10:59:56.665Z,1412
2017-12-31T11:00:56.554Z,1760
2017-12-31T11:01:56.498Z,1808
2017-12-31T11:02:57.086Z,1816
2017-12-31T11:03:56.614Z,1680
2017-12-31T11:04:57.148Z,1720
2017-12-31T11:05:57.358Z,1784
2017-12-31T11:06:57.132Z,1976
2017-12-31T11:07:57.860Z,1980
2017-12-31T11:08:57.363Z,2096
2017-12-31T11:09:57.579Z,1884
2017-12-31T11:10:57.671Z,1824
2017-12-31T11:11:58.493Z,1636
2017-12-31T11:12:58.278Z,1548
2017-12-31T11:13:57.770Z,1608
2017-12-31T11:14:58.681Z,1572
2017-12-31T11:15:58.580Z,1568
2017-12-31T11:16:58.340Z,1540
2017-12-31T11:17:58.606Z,1376
2017-12-31T11:18:58.815Z,1348
2017-12-31T11:19:59.499Z,1312
2017-12-31T11:20:59.398Z,1216
2017-12-31T11:21:59.247Z,1204
2017-12-31T11:22:59.778Z,1172
2017-12-31T11:23:59.479Z,1228
2017-12-31T11:24:59.486Z,1280
2017-12-31T11:25:59.900Z,1340
2017-12-31T11:27:00.078Z,1420
2017-12-31T11:28:00.660Z,1444
2017-12-31T11:29:00.424Z,1688
2017-12-31T11:30:00.774Z,1840
2017-12-31T11:31:01.401Z,1856
2017-12-31T11:32:00.526Z,2140
2017-12-31T11:33:01.197Z,2084
2017-12-31T11:34:02.065Z,2000
2017-12-31T11:35:02.220Z,1680
2017-12-31T11:36:02.214Z,1584
2017-12-31T11:37:02.150Z,1524
2017-12-31T11:38:01.564Z,1376
2017-12-31T11:39:02.019Z,1140
2017-12-31T11:40:02.307Z,1144
2017-12-31T11:41:01.494Z,1088
2017-12-31T11:42:00.832Z,1016
2017-12-31T11:43:01.206Z,1064
2017-12-31T11:44:00.975Z,996
2017-12-31T11:45:01.667Z,956
2017-12-31T11:46:01.731Z,944
2017-12-31T11:47:02.974Z,1168
2017-12-31T11:48:02.315Z,1152
2017-12-31T11:49:02.114Z,1284
2017-12-31T11:50:01.802Z,1312
2017-12-31T11:51:01.877Z,1444
2017-12-31T11:52:02.068Z,1416
2017-12-31T11:53:02.359Z,1444
2017-12-31T11:54:02.157Z,1508
2017-12-31T11:55:02.371Z,1720
2017-12-31T11:56:02.600Z,2080
2017-12-31T11:57:04.669Z,2160
2017-12-31T11:58:04.338Z,2148
2017-12-31T11:59:04.638Z,2228
2017-12-31T12:00:18.543Z,2228
2017-12-31T12:01:04.301Z,2060
2017-12-31T12:02:04.557Z,1860
2017-12-31T12:03:03.266Z,1780
2017-12-31T12:04:05.326Z,1884
2017-12-31T12:05:05.786Z,1976
2017-12-31T12:06:05.465Z,2032
2017-12-31T12:07:05.258Z,2000
2017-12-31T12:08:04.127Z,2132
2017-12-31T12:09:03.788Z,2032
2017-12-31T12:10:04.880Z,2084
2017-12-31T12:11:04.404Z,2364
2017-12-31T12:12:06.164Z,2472
2017-12-31T12:13:04.909Z,2472
2017-12-31T12:14:05.426Z,2564
2017-12-31T12:15:05.393Z,2536
2017-12-31T12:16:06.704Z,2396
2017-12-31T12:17:05.096Z,2428
2017-12-31T12:18:05.339Z,2656
2017-12-31T12:19:05.051Z,2812
2017-12-31T12:20:06.544Z,2684
2017-12-31T12:21:05.098Z,2328
2017-12-31T12:22:05.345Z,2184
2017-12-31T12:23:05.202Z,2352
2017-12-31T12:24:05.662Z,2244
2017-12-31T12:25:04.929Z,1852
2017-12-31T12:26:05.143Z,1808
2017-12-31T12:27:05.907Z,2052
2017-12-31T12:28:05.901Z,2072
2017-12-31T12:29:05.970Z,1872
2017-12-31T12:30:06.526Z,1784
2017-12-31T12:31:06.462Z,1696
2017-12-31T12:32:06.641Z,1720
2017-12-31T12:33:06.207Z,1648
2017-12-31T12:34:06.208Z,1632
2017-12-31T12:35:06.008Z,1608
2017-12-31T12:36:05.947Z,1540
2017-12-31T12:37:05.836Z,1576
2017-12-31T12:38:06.590Z,1712
2017-12-31T12:39:06.563Z,1608
2017-12-31T12:40:05.741Z,1468
2017-12-31T12:41:06.544Z,1240
2017-12-31T12:42:06.102Z,1116
2017-12-31T12:43:06.704Z,1076
2017-12-31T12:44:06.577Z,1012
2017-12-31T12:45:07.733Z,996
2017-12-31T12:46:06.171Z,1096
2017-12-31T12:47:07.393Z,1152
2017-12-31T12:48:06.921Z,1076
2017-12-31T12:49:06.943Z,1016
2017-12-31T12:50:07.590Z,1168
2017-12-31T12:51:07.395Z,1192
2017-12-31T12:52:07.304Z,1088
2017-12-31T12:53:07.622Z,1044
2017-12-31T12:54:07.248Z,1152
2017-12-31T12:55:07.646Z,1224
2017-12-31T12:56:08.271Z,1248
2017-12-31T12:57:08.622Z,1168
2017-12-31T12:58:08.920Z,1176
2017-12-31T12:59:08.744Z,1284
2017-12-31T13:00:09.405Z,1372
2017-12-31T13:01:08.993Z,1356
2017-12-31T13:02:09.110Z,1368
2017-12-31T13:03:09.501Z,1392
2017-12-31T13:04:09.195Z,1400
2017-12-31T13:05:09.993Z,1380
2017-12-31T13:06:10.474Z,1364
2017-12-31T13:07:09.594Z,1408
2017-12-31T13:08:09.985Z,1396
2017-12-31T13:09:09.570Z,1368
2017-12-31T13:10:10.180Z,1384
2017-12-31T13:11:09.922Z,1556
2017-12-31T13:12:10.198Z,1516
2017-12-31T13:13:10.125Z,1328
2017-12-31T13:14:10.614Z,1244
2017-12-31T13:15:11.561Z,1148
2017-12-31T13:16:11.184Z,1072
2017-12-31T13:17:11.823Z,1036
2017-12-31T13:18:11.675Z,1004
2017-12-31T13:19:12.136Z,984
2017-12-31T13:20:13.996Z,1032
2017-12-31T13:21:12.232Z,1072
2017-12-31T13:22:12.248Z,1128
2017-12-31T13:23:12.760Z,1108
2017-12-31T13:24:12.470Z,1124
2017-12-31T13:25:12.785Z,1140
2017-12-31T13:26:12.918Z,1084
2017-12-31T13:27:12.907Z,1052
2017-12-31T13:28:12.601Z,1100
2017-12-31T13:29:13.313Z,1216
2017-12-31T13:30:13.528Z,1236
2017-12-31T13:31:15.074Z,1180
2017-12-31T13:32:13.575Z,1148
2017-12-31T13:33:14.117Z,1152
2017-12-31T13:34:14.529Z,1208
2017-12-31T13:35:14.020Z,1276
2017-12-31T13:36:14.771Z,1248
2017-12-31T13:37:14.772Z,1236
2017-12-31T13:38:14.703Z,1252
2017-12-31T13:39:14.689Z,1308
2017-12-31T13:40:15.375Z,1240
2017-12-31T13:41:15.292Z,1248
2017-12-31T13:42:15.649Z,1224
2017-12-31T13:43:16.059Z,1100
2017-12-31T13:44:15.907Z,980
2017-12-31T13:45:16.863Z,984
2017-12-31T13:46:16.681Z,1048
2017-12-31T13:47:17.200Z,1056
2017-12-31T13:48:16.902Z,1080
2017-12-31T13:49:17.102Z,1104
2017-12-31T13:50:16.891Z,1124
2017-12-31T13:51:17.369Z,1088
2017-12-31T13:52:17.288Z,1116
2017-12-31T13:53:17.825Z,1112
2017-12-31T13:54:17.929Z,1152
2017-12-31T13:55:17.582Z,1132
2017-12-31T13:56:17.364Z,1120
2017-12-31T13:57:18.019Z,1028
2017-12-31T13:58:18.961Z,976
2017-12-31T13:59:17.981Z,908
2017-12-31T14:00:18.041Z,848
2017-12-31T14:01:17.924Z,828
2017-12-31T14:02:18.420Z,744
2017-12-31T14:03:18.693Z,732
2017-12-31T14:04:18.020Z,744
2017-12-31T14:05:18.575Z,692
2017-12-31T14:06:18.217Z,592
2017-12-31T14:07:18.625Z,536
2017-12-31T14:08:19.259Z,528
2017-12-31T14:09:19.496Z,516